ADDS METAR Data INFO
IDs: Format: Raw Decoded Include TAF

Data at: 1814 UTC 25 May 2017

METAR for:KHLX (Hillsville/Twin Cnty, VA, US)
Text:KHLX 251755Z AUTO 28006G22KT 10SM BKN035 OVC042 15/05 A2960 RMK AO2 T01510053 10160 20110
Temperature: 15.1°C ( 59°F)
Dewpoint: 5.3°C ( 42°F) [RH = 52%]
Pressure (altimeter):29.60 inches Hg (1002.5 mb)
Winds:from the W (280 degrees) at 7 MPH (6 knots; 3.1 m/s) gusting to 25 MPH (22 knots; 11.3 m/s)
Visibility:10 or more sm (16+ km)
Ceiling:3500 feet AGL
Clouds: broken clouds at 3500 feet AGL, overcast cloud deck at 4200 feet AGL
QC Flag:automated observation with no human augmentation


Page loaded:  18:14 UTC  |   11:14 AM Pacific  |   12:14 PM Mountain  |   01:14 PM Central  |   02:14 PM Eastern

 

ADVISORIES

FORECASTS

FORECASTS

OBSERVATIONS

USER TOOLS

ABOUT US